sensor_id;sensor_type;location;lat;lon;timestamp;P1;durP1;ratioP1;P2;durP2;ratioP2
71572;SDS011;59408;51.032;9.410;2023-12-22T00:00:02;9.93;;;1.75;;
71572;SDS011;59408;51.032;9.410;2023-12-22T00:02:32;8.47;;;2.00;;
71572;SDS011;59408;51.032;9.410;2023-12-22T00:04:58;9.82;;;1.92;;
71572;SDS011;59408;51.032;9.410;2023-12-22T00:07:25;12.40;;;2.20;;
71572;SDS011;59408;51.032;9.410;2023-12-22T00:09:52;6.88;;;1.55;;
71572;SDS011;59408;51.032;9.410;2023-12-22T00:12:20;12.55;;;2.03;;
71572;SDS011;59408;51.032;9.410;2023-12-22T00:14:47;11.43;;;1.80;;
71572;SDS011;59408;51.032;9.410;2023-12-22T00:17:13;10.18;;;1.60;;
71572;SDS011;59408;51.032;9.410;2023-12-22T00:19:41;8.52;;;1.48;;
71572;SDS011;59408;51.032;9.410;2023-12-22T00:22:08;8.88;;;1.65;;
71572;SDS011;59408;51.032;9.410;2023-12-22T00:24:34;9.35;;;1.80;;
71572;SDS011;59408;51.032;9.410;2023-12-22T00:27:01;13.13;;;1.50;;
71572;SDS011;59408;51.032;9.410;2023-12-22T00:29:27;11.85;;;1.70;;
71572;SDS011;59408;51.032;9.410;2023-12-22T00:31:54;8.52;;;1.73;;
71572;SDS011;59408;51.032;9.410;2023-12-22T00:34:21;14.90;;;2.00;;
71572;SDS011;59408;51.032;9.410;2023-12-22T00:36:49;11.20;;;1.55;;
71572;SDS011;59408;51.032;9.410;2023-12-22T00:39:16;7.40;;;1.67;;
71572;SDS011;59408;51.032;9.410;2023-12-22T00:41:42;10.73;;;1.70;;
71572;SDS011;59408;51.032;9.410;2023-12-22T00:44:09;10.80;;;1.83;;
71572;SDS011;59408;51.032;9.410;2023-12-22T00:46:36;7.40;;;1.50;;
71572;SDS011;59408;51.032;9.410;2023-12-22T00:49:02;7.60;;;1.58;;
71572;SDS011;59408;51.032;9.410;2023-12-22T00:51:29;7.23;;;1.00;;
71572;SDS011;59408;51.032;9.410;2023-12-22T00:53:57;7.25;;;1.13;;
71572;SDS011;59408;51.032;9.410;2023-12-22T00:56:23;8.88;;;1.73;;
71572;SDS011;59408;51.032;9.410;2023-12-22T00:58:49;9.85;;;1.42;;
71572;SDS011;59408;51.032;9.410;2023-12-22T01:01:27;10.10;;;1.50;;
71572;SDS011;59408;51.032;9.410;2023-12-22T01:03:54;6.37;;;1.17;;
71572;SDS011;59408;51.032;9.410;2023-12-22T01:06:20;11.43;;;1.33;;
71572;SDS011;59408;51.032;9.410;2023-12-22T01:08:51;5.45;;;1.30;;
71572;SDS011;59408;51.032;9.410;2023-12-22T01:11:19;9.70;;;1.95;;
71572;SDS011;59408;51.032;9.410;2023-12-22T01:13:45;7.38;;;1.40;;
71572;SDS011;59408;51.032;9.410;2023-12-22T01:16:12;10.27;;;1.93;;
71572;SDS011;59408;51.032;9.410;2023-12-22T01:18:39;10.35;;;1.60;;
71572;SDS011;59408;51.032;9.410;2023-12-22T01:21:06;8.52;;;1.30;;
71572;SDS011;59408;51.032;9.410;2023-12-22T01:23:32;8.50;;;1.42;;
71572;SDS011;59408;51.032;9.410;2023-12-22T01:25:59;9.60;;;1.55;;
71572;SDS011;59408;51.032;9.410;2023-12-22T01:28:27;6.73;;;1.40;;
71572;SDS011;59408;51.032;9.410;2023-12-22T01:30:53;4.80;;;1.00;;
71572;SDS011;59408;51.032;9.410;2023-12-22T01:33:20;7.72;;;1.55;;
71572;SDS011;59408;51.032;9.410;2023-12-22T01:35:47;9.20;;;1.55;;
71572;SDS011;59408;51.032;9.410;2023-12-22T01:38:13;6.30;;;1.48;;
71572;SDS011;59408;51.032;9.410;2023-12-22T01:40:40;7.70;;;1.20;;
71572;SDS011;59408;51.032;9.410;2023-12-22T01:43:06;5.80;;;1.20;;
71572;SDS011;59408;51.032;9.410;2023-12-22T01:45:34;6.75;;;1.50;;
71572;SDS011;59408;51.032;9.410;2023-12-22T01:48:01;9.32;;;1.40;;
71572;SDS011;59408;51.032;9.410;2023-12-22T01:50:29;7.35;;;1.85;;
71572;SDS011;59408;51.032;9.410;2023-12-22T01:52:55;6.80;;;1.27;;
71572;SDS011;59408;51.032;9.410;2023-12-22T01:55:22;7.43;;;1.50;;
71572;SDS011;59408;51.032;9.410;2023-12-22T01:57:50;10.23;;;1.40;;
71572;SDS011;59408;51.032;9.410;2023-12-22T02:00:17;6.50;;;1.23;;
71572;SDS011;59408;51.032;9.410;2023-12-22T02:02:46;7.97;;;1.60;;
71572;SDS011;59408;51.032;9.410;2023-12-22T02:05:13;8.70;;;1.30;;
71572;SDS011;59408;51.032;9.410;2023-12-22T02:07:40;9.73;;;1.20;;
71572;SDS011;59408;51.032;9.410;2023-12-22T02:10:08;8.80;;;1.58;;
71572;SDS011;59408;51.032;9.410;2023-12-22T02:12:35;6.53;;;1.15;;
71572;SDS011;59408;51.032;9.410;2023-12-22T02:15:01;10.82;;;1.70;;
71572;SDS011;59408;51.032;9.410;2023-12-22T02:17:29;5.87;;;1.10;;
71572;SDS011;59408;51.032;9.410;2023-12-22T02:20:04;10.35;;;1.50;;
71572;SDS011;59408;51.032;9.410;2023-12-22T02:22:34;7.03;;;1.20;;
71572;SDS011;59408;51.032;9.410;2023-12-22T02:25:01;7.28;;;1.58;;
71572;SDS011;59408;51.032;9.410;2023-12-22T02:27:28;8.45;;;1.40;;
71572;SDS011;59408;51.032;9.410;2023-12-22T02:30:01;14.17;;;1.70;;
71572;SDS011;59408;51.032;9.410;2023-12-22T02:32:32;6.05;;;1.05;;
71572;SDS011;59408;51.032;9.410;2023-12-22T02:35:03;7.22;;;1.20;;
71572;SDS011;59408;51.032;9.410;2023-12-22T02:37:35;6.10;;;1.05;;
71572;SDS011;59408;51.032;9.410;2023-12-22T02:40:02;7.07;;;1.23;;
71572;SDS011;59408;51.032;9.410;2023-12-22T02:42:30;13.10;;;1.40;;
71572;SDS011;59408;51.032;9.410;2023-12-22T02:44:59;6.28;;;1.23;;
71572;SDS011;59408;51.032;9.410;2023-12-22T02:47:25;8.82;;;1.70;;
71572;SDS011;59408;51.032;9.410;2023-12-22T02:49:52;5.75;;;1.00;;
71572;SDS011;59408;51.032;9.410;2023-12-22T02:52:19;5.60;;;1.17;;
71572;SDS011;59408;51.032;9.410;2023-12-22T02:54:47;5.73;;;1.13;;
71572;SDS011;59408;51.032;9.410;2023-12-22T02:57:13;9.10;;;1.13;;
71572;SDS011;59408;51.032;9.410;2023-12-22T02:59:40;7.28;;;1.20;;
71572;SDS011;59408;51.032;9.410;2023-12-22T03:02:07;6.68;;;1.20;;
71572;SDS011;59408;51.032;9.410;2023-12-22T03:04:33;7.03;;;1.30;;
71572;SDS011;59408;51.032;9.410;2023-12-22T03:07:00;10.90;;;1.27;;
71572;SDS011;59408;51.032;9.410;2023-12-22T03:09:27;8.27;;;1.25;;
71572;SDS011;59408;51.032;9.410;2023-12-22T03:11:55;7.22;;;1.05;;
71572;SDS011;59408;51.032;9.410;2023-12-22T03:14:22;7.97;;;1.30;;
71572;SDS011;59408;51.032;9.410;2023-12-22T03:16:48;5.75;;;1.00;;
71572;SDS011;59408;51.032;9.410;2023-12-22T03:19:15;6.23;;;1.20;;
71572;SDS011;59408;51.032;9.410;2023-12-22T03:21:41;7.75;;;0.80;;
71572;SDS011;59408;51.032;9.410;2023-12-22T03:24:08;7.75;;;1.25;;
71572;SDS011;59408;51.032;9.410;2023-12-22T03:26:34;9.48;;;1.42;;
71572;SDS011;59408;51.032;9.410;2023-12-22T03:29:02;6.10;;;1.23;;
71572;SDS011;59408;51.032;9.410;2023-12-22T03:31:29;7.93;;;1.20;;
71572;SDS011;59408;51.032;9.410;2023-12-22T03:33:55;7.45;;;1.13;;
71572;SDS011;59408;51.032;9.410;2023-12-22T03:36:22;10.25;;;1.77;;
71572;SDS011;59408;51.032;9.410;2023-12-22T03:38:49;8.45;;;1.58;;
71572;SDS011;59408;51.032;9.410;2023-12-22T03:41:15;8.27;;;1.80;;
71572;SDS011;59408;51.032;9.410;2023-12-22T03:43:42;7.23;;;1.13;;
71572;SDS011;59408;51.032;9.410;2023-12-22T03:46:10;8.40;;;1.10;;
71572;SDS011;59408;51.032;9.410;2023-12-22T03:48:36;8.13;;;1.25;;
71572;SDS011;59408;51.032;9.410;2023-12-22T03:51:03;12.93;;;1.55;;
71572;SDS011;59408;51.032;9.410;2023-12-22T03:53:30;9.90;;;1.30;;
71572;SDS011;59408;51.032;9.410;2023-12-22T03:55:56;8.23;;;1.60;;
71572;SDS011;59408;51.032;9.410;2023-12-22T03:58:23;5.32;;;1.38;;
71572;SDS011;59408;51.032;9.410;2023-12-22T04:00:49;5.75;;;1.30;;
71572;SDS011;59408;51.032;9.410;2023-12-22T04:03:19;6.18;;;1.00;;
71572;SDS011;59408;51.032;9.410;2023-12-22T04:05:45;11.77;;;1.30;;
71572;SDS011;59408;51.032;9.410;2023-12-22T04:08:12;7.83;;;1.13;;
71572;SDS011;59408;51.032;9.410;2023-12-22T04:10:39;8.77;;;1.25;;
71572;SDS011;59408;51.032;9.410;2023-12-22T04:13:05;5.97;;;1.20;;
71572;SDS011;59408;51.032;9.410;2023-12-22T04:15:32;9.32;;;1.52;;
71572;SDS011;59408;51.032;9.410;2023-12-22T04:17:59;6.10;;;1.05;;
71572;SDS011;59408;51.032;9.410;2023-12-22T04:20:27;9.97;;;1.30;;
71572;SDS011;59408;51.032;9.410;2023-12-22T04:22:53;6.38;;;1.13;;
71572;SDS011;59408;51.032;9.410;2023-12-22T04:25:20;5.18;;;0.98;;
71572;SDS011;59408;51.032;9.410;2023-12-22T04:27:47;6.72;;;0.80;;
71572;SDS011;59408;51.032;9.410;2023-12-22T04:30:13;8.88;;;1.45;;
71572;SDS011;59408;51.032;9.410;2023-12-22T04:32:40;4.20;;;0.90;;
71572;SDS011;59408;51.032;9.410;2023-12-22T04:35:07;5.47;;;0.90;;
71572;SDS011;59408;51.032;9.410;2023-12-22T04:37:35;7.72;;;1.73;;
71572;SDS011;59408;51.032;9.410;2023-12-22T04:40:02;4.93;;;1.10;;
71572;SDS011;59408;51.032;9.410;2023-12-22T04:42:29;8.77;;;1.13;;
71572;SDS011;59408;51.032;9.410;2023-12-22T04:44:55;8.07;;;1.10;;
71572;SDS011;59408;51.032;9.410;2023-12-22T04:47:22;5.47;;;0.80;;
71572;SDS011;59408;51.032;9.410;2023-12-22T04:49:48;7.15;;;1.20;;
71572;SDS011;59408;51.032;9.410;2023-12-22T04:52:15;5.20;;;0.88;;
71572;SDS011;59408;51.032;9.410;2023-12-22T04:54:43;3.65;;;0.90;;
71572;SDS011;59408;51.032;9.410;2023-12-22T04:57:10;4.83;;;0.87;;
71572;SDS011;59408;51.032;9.410;2023-12-22T04:59:38;5.80;;;1.05;;
71572;SDS011;59408;51.032;9.410;2023-12-22T05:02:05;6.35;;;1.08;;
71572;SDS011;59408;51.032;9.410;2023-12-22T05:04:31;5.57;;;1.02;;
71572;SDS011;59408;51.032;9.410;2023-12-22T05:06:59;4.90;;;0.90;;
71572;SDS011;59408;51.032;9.410;2023-12-22T05:09:25;3.77;;;0.60;;
71572;SDS011;59408;51.032;9.410;2023-12-22T05:11:53;3.20;;;0.50;;
71572;SDS011;59408;51.032;9.410;2023-12-22T05:14:20;6.00;;;0.80;;
71572;SDS011;59408;51.032;9.410;2023-12-22T05:16:47;3.67;;;0.90;;
71572;SDS011;59408;51.032;9.410;2023-12-22T05:19:13;5.75;;;1.02;;
71572;SDS011;59408;51.032;9.410;2023-12-22T05:21:40;3.17;;;0.70;;
71572;SDS011;59408;51.032;9.410;2023-12-22T05:24:06;3.13;;;0.82;;
71572;SDS011;59408;51.032;9.410;2023-12-22T05:26:33;3.55;;;0.60;;
71572;SDS011;59408;51.032;9.410;2023-12-22T05:29:01;3.35;;;0.68;;
71572;SDS011;59408;51.032;9.410;2023-12-22T05:31:28;3.38;;;0.70;;
71572;SDS011;59408;51.032;9.410;2023-12-22T05:33:55;2.57;;;0.60;;
71572;SDS011;59408;51.032;9.410;2023-12-22T05:36:21;3.92;;;1.13;;
71572;SDS011;59408;51.032;9.410;2023-12-22T05:38:48;3.45;;;0.80;;
71572;SDS011;59408;51.032;9.410;2023-12-22T05:41:14;3.00;;;0.80;;
71572;SDS011;59408;51.032;9.410;2023-12-22T05:43:41;2.75;;;0.73;;
71572;SDS011;59408;51.032;9.410;2023-12-22T05:46:09;3.77;;;0.60;;
71572;SDS011;59408;51.032;9.410;2023-12-22T05:48:35;4.53;;;1.00;;
71572;SDS011;59408;51.032;9.410;2023-12-22T05:51:02;4.70;;;0.80;;
71572;SDS011;59408;51.032;9.410;2023-12-22T05:53:29;4.75;;;1.10;;
71572;SDS011;59408;51.032;9.410;2023-12-22T05:55:55;5.88;;;0.80;;
71572;SDS011;59408;51.032;9.410;2023-12-22T05:58:22;4.17;;;0.80;;
71572;SDS011;59408;51.032;9.410;2023-12-22T06:00:48;9.95;;;0.80;;
71572;SDS011;59408;51.032;9.410;2023-12-22T06:03:16;2.58;;;0.70;;
71572;SDS011;59408;51.032;9.410;2023-12-22T06:05:43;4.68;;;0.73;;
71572;SDS011;59408;51.032;9.410;2023-12-22T06:08:10;3.58;;;0.80;;
71572;SDS011;59408;51.032;9.410;2023-12-22T06:10:37;7.17;;;0.63;;
71572;SDS011;59408;51.032;9.410;2023-12-22T06:13:03;6.70;;;0.70;;
71572;SDS011;59408;51.032;9.410;2023-12-22T06:15:30;3.40;;;0.70;;
71572;SDS011;59408;51.032;9.410;2023-12-22T06:17:56;4.35;;;0.90;;
71572;SDS011;59408;51.032;9.410;2023-12-22T06:20:24;3.95;;;0.80;;
71572;SDS011;59408;51.032;9.410;2023-12-22T06:22:50;5.60;;;0.80;;
71572;SDS011;59408;51.032;9.410;2023-12-22T06:25:17;3.58;;;1.33;;
71572;SDS011;59408;51.032;9.410;2023-12-22T06:27:45;5.63;;;1.08;;
71572;SDS011;59408;51.032;9.410;2023-12-22T06:30:12;2.78;;;0.68;;
71572;SDS011;59408;51.032;9.410;2023-12-22T06:32:39;4.28;;;0.98;;
71572;SDS011;59408;51.032;9.410;2023-12-22T06:35:07;4.43;;;0.90;;
71572;SDS011;59408;51.032;9.410;2023-12-22T06:37:35;4.50;;;0.70;;
71572;SDS011;59408;51.032;9.410;2023-12-22T06:40:02;3.55;;;0.88;;
71572;SDS011;59408;51.032;9.410;2023-12-22T06:42:29;6.93;;;0.85;;
71572;SDS011;59408;51.032;9.410;2023-12-22T06:44:55;4.00;;;0.85;;
71572;SDS011;59408;51.032;9.410;2023-12-22T06:47:22;4.83;;;0.90;;
71572;SDS011;59408;51.032;9.410;2023-12-22T06:49:48;4.80;;;0.90;;
71572;SDS011;59408;51.032;9.410;2023-12-22T06:52:15;7.57;;;1.13;;
71572;SDS011;59408;51.032;9.410;2023-12-22T06:54:43;3.90;;;0.90;;
71572;SDS011;59408;51.032;9.410;2023-12-22T06:57:10;5.55;;;0.90;;
71572;SDS011;59408;51.032;9.410;2023-12-22T06:59:36;5.83;;;1.00;;
71572;SDS011;59408;51.032;9.410;2023-12-22T07:02:05;4.28;;;0.80;;
71572;SDS011;59408;51.032;9.410;2023-12-22T07:07:49;5.22;;;0.90;;
71572;SDS011;59408;51.032;9.410;2023-12-22T07:10:18;3.70;;;0.68;;
71572;SDS011;59408;51.032;9.410;2023-12-22T07:12:44;5.70;;;0.80;;
71572;SDS011;59408;51.032;9.410;2023-12-22T07:15:11;7.18;;;1.20;;
71572;SDS011;59408;51.032;9.410;2023-12-22T07:17:38;6.18;;;1.30;;
71572;SDS011;59408;51.032;9.410;2023-12-22T07:20:05;4.40;;;1.20;;
71572;SDS011;59408;51.032;9.410;2023-12-22T07:22:32;5.75;;;1.00;;
71572;SDS011;59408;51.032;9.410;2023-12-22T07:24:59;5.73;;;0.93;;
71572;SDS011;59408;51.032;9.410;2023-12-22T07:27:27;3.72;;;1.00;;
71572;SDS011;59408;51.032;9.410;2023-12-22T07:29:54;6.45;;;1.55;;
71572;SDS011;59408;51.032;9.410;2023-12-22T07:32:21;4.50;;;0.88;;
71572;SDS011;59408;51.032;9.410;2023-12-22T07:34:47;6.55;;;1.20;;
71572;SDS011;59408;51.032;9.410;2023-12-22T07:37:14;6.90;;;1.20;;
71572;SDS011;59408;51.032;9.410;2023-12-22T07:39:41;8.02;;;1.15;;
71572;SDS011;59408;51.032;9.410;2023-12-22T07:42:07;4.28;;;0.85;;
71572;SDS011;59408;51.032;9.410;2023-12-22T07:44:35;6.85;;;1.10;;
71572;SDS011;59408;51.032;9.410;2023-12-22T07:47:01;6.55;;;1.55;;
71572;SDS011;59408;51.032;9.410;2023-12-22T07:49:29;5.70;;;0.83;;
71572;SDS011;59408;51.032;9.410;2023-12-22T07:51:57;5.75;;;0.98;;
71572;SDS011;59408;51.032;9.410;2023-12-22T07:54:23;5.60;;;1.15;;
71572;SDS011;59408;51.032;9.410;2023-12-22T07:56:50;5.18;;;1.10;;
71572;SDS011;59408;51.032;9.410;2023-12-22T07:59:17;7.32;;;1.20;;
71572;SDS011;59408;51.032;9.410;2023-12-22T08:01:57;6.07;;;1.03;;
71572;SDS011;59408;51.032;9.410;2023-12-22T08:04:24;4.95;;;1.05;;
71572;SDS011;59408;51.032;9.410;2023-12-22T08:06:50;7.47;;;1.42;;
71572;SDS011;59408;51.032;9.410;2023-12-22T08:09:17;10.02;;;2.40;;
71572;SDS011;59408;51.032;9.410;2023-12-22T08:11:44;8.77;;;1.80;;
71572;SDS011;59408;51.032;9.410;2023-12-22T08:14:10;8.93;;;1.03;;
71572;SDS011;59408;51.032;9.410;2023-12-22T08:16:37;7.82;;;0.90;;
71572;SDS011;59408;51.032;9.410;2023-12-22T08:19:05;6.00;;;1.20;;
71572;SDS011;59408;51.032;9.410;2023-12-22T08:21:31;5.38;;;1.45;;
71572;SDS011;59408;51.032;9.410;2023-12-22T08:24:09;4.95;;;1.08;;
71572;SDS011;59408;51.032;9.410;2023-12-22T08:26:41;9.80;;;1.43;;
71572;SDS011;59408;51.032;9.410;2023-12-22T08:29:08;6.15;;;1.40;;
71572;SDS011;59408;51.032;9.410;2023-12-22T08:31:35;8.18;;;1.50;;
71572;SDS011;59408;51.032;9.410;2023-12-22T08:34:02;4.78;;;1.10;;
71572;SDS011;59408;51.032;9.410;2023-12-22T08:36:31;10.43;;;1.50;;
71572;SDS011;59408;51.032;9.410;2023-12-22T08:38:59;9.70;;;1.70;;
71572;SDS011;59408;51.032;9.410;2023-12-22T08:41:26;11.10;;;2.15;;
71572;SDS011;59408;51.032;9.410;2023-12-22T08:43:53;10.32;;;2.10;;
71572;SDS011;59408;51.032;9.410;2023-12-22T08:46:20;9.40;;;2.00;;
71572;SDS011;59408;51.032;9.410;2023-12-22T08:48:47;8.82;;;1.70;;
71572;SDS011;59408;51.032;9.410;2023-12-22T08:51:13;7.37;;;1.50;;
71572;SDS011;59408;51.032;9.410;2023-12-22T08:53:41;8.40;;;1.45;;
71572;SDS011;59408;51.032;9.410;2023-12-22T08:56:08;9.30;;;2.08;;
71572;SDS011;59408;51.032;9.410;2023-12-22T08:58:35;8.40;;;1.63;;
71572;SDS011;59408;51.032;9.410;2023-12-22T09:01:01;5.38;;;1.58;;
71572;SDS011;59408;51.032;9.410;2023-12-22T09:03:28;6.47;;;1.53;;
71572;SDS011;59408;51.032;9.410;2023-12-22T09:05:54;8.60;;;1.20;;
71572;SDS011;59408;51.032;9.410;2023-12-22T09:08:22;7.03;;;1.50;;
71572;SDS011;59408;51.032;9.410;2023-12-22T09:10:51;5.15;;;1.15;;
71572;SDS011;59408;51.032;9.410;2023-12-22T09:13:19;9.40;;;1.33;;
71572;SDS011;59408;51.032;9.410;2023-12-22T09:15:46;7.87;;;1.43;;
71572;SDS011;59408;51.032;9.410;2023-12-22T09:18:12;10.93;;;1.52;;
71572;SDS011;59408;51.032;9.410;2023-12-22T09:20:39;10.15;;;1.40;;
71572;SDS011;59408;51.032;9.410;2023-12-22T09:23:05;8.32;;;1.50;;
71572;SDS011;59408;51.032;9.410;2023-12-22T09:25:32;4.18;;;1.00;;
71572;SDS011;59408;51.032;9.410;2023-12-22T09:28:01;5.83;;;1.60;;
71572;SDS011;59408;51.032;9.410;2023-12-22T09:30:27;6.63;;;1.35;;
71572;SDS011;59408;51.032;9.410;2023-12-22T09:32:54;7.30;;;1.60;;
71572;SDS011;59408;51.032;9.410;2023-12-22T09:35:20;5.22;;;1.25;;
71572;SDS011;59408;51.032;9.410;2023-12-22T09:37:47;5.40;;;1.27;;
71572;SDS011;59408;51.032;9.410;2023-12-22T09:40:14;5.20;;;1.63;;
71572;SDS011;59408;51.032;9.410;2023-12-22T09:42:40;5.55;;;1.40;;
71572;SDS011;59408;51.032;9.410;2023-12-22T09:45:10;5.43;;;1.73;;
71572;SDS011;59408;51.032;9.410;2023-12-22T09:47:38;4.18;;;1.05;;
71572;SDS011;59408;51.032;9.410;2023-12-22T09:50:08;4.70;;;1.10;;
71572;SDS011;59408;51.032;9.410;2023-12-22T09:52:35;4.60;;;1.00;;
71572;SDS011;59408;51.032;9.410;2023-12-22T09:55:02;4.53;;;1.10;;
71572;SDS011;59408;51.032;9.410;2023-12-22T09:57:30;5.63;;;1.60;;
71572;SDS011;59408;51.032;9.410;2023-12-22T09:59:57;3.75;;;1.05;;
71572;SDS011;59408;51.032;9.410;2023-12-22T10:02:26;6.85;;;1.75;;
71572;SDS011;59408;51.032;9.410;2023-12-22T10:04:55;5.97;;;1.37;;
71572;SDS011;59408;51.032;9.410;2023-12-22T10:07:22;5.75;;;1.35;;
71572;SDS011;59408;51.032;9.410;2023-12-22T10:09:50;6.22;;;1.23;;
71572;SDS011;59408;51.032;9.410;2023-12-22T10:12:18;5.38;;;1.20;;
71572;SDS011;59408;51.032;9.410;2023-12-22T10:14:46;5.72;;;1.70;;
71572;SDS011;59408;51.032;9.410;2023-12-22T10:17:13;4.03;;;1.27;;
71572;SDS011;59408;51.032;9.410;2023-12-22T10:19:42;4.07;;;1.20;;
71572;SDS011;59408;51.032;9.410;2023-12-22T10:22:09;3.90;;;1.23;;
71572;SDS011;59408;51.032;9.410;2023-12-22T10:24:39;3.95;;;1.17;;
71572;SDS011;59408;51.032;9.410;2023-12-22T10:27:06;3.42;;;1.27;;
71572;SDS011;59408;51.032;9.410;2023-12-22T10:29:33;5.07;;;0.87;;
71572;SDS011;59408;51.032;9.410;2023-12-22T10:32:00;4.72;;;1.20;;
71572;SDS011;59408;51.032;9.410;2023-12-22T10:34:29;4.75;;;1.45;;
71572;SDS011;59408;51.032;9.410;2023-12-22T10:36:58;3.83;;;0.80;;
71572;SDS011;59408;51.032;9.410;2023-12-22T10:39:26;4.75;;;0.82;;
71572;SDS011;59408;51.032;9.410;2023-12-22T10:41:53;3.73;;;0.80;;
71572;SDS011;59408;51.032;9.410;2023-12-22T10:44:20;2.80;;;0.80;;
71572;SDS011;59408;51.032;9.410;2023-12-22T10:46:47;5.28;;;1.60;;
71572;SDS011;59408;51.032;9.410;2023-12-22T10:49:14;4.65;;;1.10;;
71572;SDS011;59408;51.032;9.410;2023-12-22T10:51:41;6.22;;;1.30;;
71572;SDS011;59408;51.032;9.410;2023-12-22T10:54:08;4.20;;;1.37;;
71572;SDS011;59408;51.032;9.410;2023-12-22T10:56:35;4.93;;;1.17;;
71572;SDS011;59408;51.032;9.410;2023-12-22T10:59:02;6.47;;;1.60;;
71572;SDS011;59408;51.032;9.410;2023-12-22T11:01:29;4.20;;;1.30;;
71572;SDS011;59408;51.032;9.410;2023-12-22T11:03:57;4.50;;;1.40;;
71572;SDS011;59408;51.032;9.410;2023-12-22T11:06:27;6.40;;;1.40;;
71572;SDS011;59408;51.032;9.410;2023-12-22T11:08:56;6.82;;;1.42;;
71572;SDS011;59408;51.032;9.410;2023-12-22T11:11:26;5.60;;;1.50;;
71572;SDS011;59408;51.032;9.410;2023-12-22T11:13:54;4.82;;;1.17;;
71572;SDS011;59408;51.032;9.410;2023-12-22T11:16:23;5.47;;;1.50;;
71572;SDS011;59408;51.032;9.410;2023-12-22T11:18:50;6.27;;;1.40;;
71572;SDS011;59408;51.032;9.410;2023-12-22T11:21:21;4.40;;;1.30;;
71572;SDS011;59408;51.032;9.410;2023-12-22T11:23:49;4.68;;;1.30;;
71572;SDS011;59408;51.032;9.410;2023-12-22T11:26:18;7.57;;;1.60;;
71572;SDS011;59408;51.032;9.410;2023-12-22T11:28:47;7.30;;;2.00;;
71572;SDS011;59408;51.032;9.410;2023-12-22T11:31:15;7.87;;;2.07;;
71572;SDS011;59408;51.032;9.410;2023-12-22T11:33:43;7.15;;;1.92;;
71572;SDS011;59408;51.032;9.410;2023-12-22T11:36:28;6.63;;;1.90;;
71572;SDS011;59408;51.032;9.410;2023-12-22T11:38:56;6.68;;;1.50;;
71572;SDS011;59408;51.032;9.410;2023-12-22T11:41:24;6.47;;;2.13;;
71572;SDS011;59408;51.032;9.410;2023-12-22T11:43:55;7.27;;;1.50;;
71572;SDS011;59408;51.032;9.410;2023-12-22T11:46:23;7.40;;;2.15;;
71572;SDS011;59408;51.032;9.410;2023-12-22T11:48:51;5.82;;;2.00;;
71572;SDS011;59408;51.032;9.410;2023-12-22T11:51:19;7.63;;;2.25;;
71572;SDS011;59408;51.032;9.410;2023-12-22T11:53:45;5.82;;;2.08;;
71572;SDS011;59408;51.032;9.410;2023-12-22T11:56:12;7.13;;;2.53;;
71572;SDS011;59408;51.032;9.410;2023-12-22T11:58:39;7.32;;;1.85;;
71572;SDS011;59408;51.032;9.410;2023-12-22T12:01:11;7.68;;;2.28;;
71572;SDS011;59408;51.032;9.410;2023-12-22T12:03:41;7.60;;;2.15;;
71572;SDS011;59408;51.032;9.410;2023-12-22T12:06:14;6.55;;;1.88;;
71572;SDS011;59408;51.032;9.410;2023-12-22T12:08:42;11.77;;;2.30;;
71572;SDS011;59408;51.032;9.410;2023-12-22T12:11:09;5.35;;;2.00;;
71572;SDS011;59408;51.032;9.410;2023-12-22T12:13:37;4.80;;;1.50;;
71572;SDS011;59408;51.032;9.410;2023-12-22T12:16:09;7.88;;;2.05;;
71572;SDS011;59408;51.032;9.410;2023-12-22T12:18:38;5.00;;;1.60;;
71572;SDS011;59408;51.032;9.410;2023-12-22T12:21:05;3.87;;;1.00;;
71572;SDS011;59408;51.032;9.410;2023-12-22T12:23:33;5.93;;;1.80;;
71572;SDS011;59408;51.032;9.410;2023-12-22T12:26:00;6.25;;;1.70;;
71572;SDS011;59408;51.032;9.410;2023-12-22T12:28:28;6.40;;;1.70;;
71572;SDS011;59408;51.032;9.410;2023-12-22T12:30:59;7.75;;;1.92;;
71572;SDS011;59408;51.032;9.410;2023-12-22T12:33:28;5.30;;;1.57;;
71572;SDS011;59408;51.032;9.410;2023-12-22T12:35:56;4.63;;;1.20;;
71572;SDS011;59408;51.032;9.410;2023-12-22T12:38:28;4.53;;;1.55;;
71572;SDS011;59408;51.032;9.410;2023-12-22T12:41:09;3.35;;;0.93;;
71572;SDS011;59408;51.032;9.410;2023-12-22T12:43:36;5.25;;;1.95;;
71572;SDS011;59408;51.032;9.410;2023-12-22T12:46:07;3.27;;;0.90;;
71572;SDS011;59408;51.032;9.410;2023-12-22T12:48:35;5.10;;;1.20;;
71572;SDS011;59408;51.032;9.410;2023-12-22T12:51:02;3.65;;;1.20;;
71572;SDS011;59408;51.032;9.410;2023-12-22T12:53:30;5.90;;;1.70;;
71572;SDS011;59408;51.032;9.410;2023-12-22T12:55:57;7.03;;;2.50;;
71572;SDS011;59408;51.032;9.410;2023-12-22T12:58:26;3.83;;;1.00;;
71572;SDS011;59408;51.032;9.410;2023-12-22T13:00:54;4.38;;;1.27;;
71572;SDS011;59408;51.032;9.410;2023-12-22T13:03:30;5.95;;;1.80;;
71572;SDS011;59408;51.032;9.410;2023-12-22T13:06:06;6.88;;;2.03;;
71572;SDS011;59408;51.032;9.410;2023-12-22T13:08:34;7.60;;;2.38;;
71572;SDS011;59408;51.032;9.410;2023-12-22T13:11:10;7.23;;;2.23;;
71572;SDS011;59408;51.032;9.410;2023-12-22T13:13:40;7.03;;;2.00;;
71572;SDS011;59408;51.032;9.410;2023-12-22T13:16:07;6.40;;;1.98;;
71572;SDS011;59408;51.032;9.410;2023-12-22T13:18:34;5.45;;;1.50;;
71572;SDS011;59408;51.032;9.410;2023-12-22T13:21:02;11.20;;;3.90;;
71572;SDS011;59408;51.032;9.410;2023-12-22T13:23:30;7.07;;;2.67;;
71572;SDS011;59408;51.032;9.410;2023-12-22T13:25:59;8.48;;;3.15;;
71572;SDS011;59408;51.032;9.410;2023-12-22T13:28:26;10.32;;;3.00;;
71572;SDS011;59408;51.032;9.410;2023-12-22T13:30:55;6.57;;;1.90;;
71572;SDS011;59408;51.032;9.410;2023-12-22T13:33:22;6.30;;;2.50;;
71572;SDS011;59408;51.032;9.410;2023-12-22T13:35:48;22.43;;;9.43;;
71572;SDS011;59408;51.032;9.410;2023-12-22T13:38:15;9.25;;;3.88;;
71572;SDS011;59408;51.032;9.410;2023-12-22T13:40:45;10.38;;;3.67;;
71572;SDS011;59408;51.032;9.410;2023-12-22T13:43:13;15.20;;;5.75;;
71572;SDS011;59408;51.032;9.410;2023-12-22T13:45:39;17.50;;;7.63;;
71572;SDS011;59408;51.032;9.410;2023-12-22T13:48:06;24.80;;;13.53;;
71572;SDS011;59408;51.032;9.410;2023-12-22T13:50:33;13.45;;;6.93;;
71572;SDS011;59408;51.032;9.410;2023-12-22T13:53:06;13.77;;;6.82;;
71572;SDS011;59408;51.032;9.410;2023-12-22T13:55:34;7.60;;;3.63;;
71572;SDS011;59408;51.032;9.410;2023-12-22T13:58:03;11.15;;;5.35;;
71572;SDS011;59408;51.032;9.410;2023-12-22T14:00:30;16.53;;;7.33;;
71572;SDS011;59408;51.032;9.410;2023-12-22T14:02:57;8.52;;;3.40;;
71572;SDS011;59408;51.032;9.410;2023-12-22T14:05:24;8.60;;;2.90;;
71572;SDS011;59408;51.032;9.410;2023-12-22T14:07:50;8.93;;;3.70;;
71572;SDS011;59408;51.032;9.410;2023-12-22T14:10:18;8.10;;;2.83;;
71572;SDS011;59408;51.032;9.410;2023-12-22T14:12:45;11.17;;;3.17;;
71572;SDS011;59408;51.032;9.410;2023-12-22T14:15:13;8.02;;;2.80;;
71572;SDS011;59408;51.032;9.410;2023-12-22T14:17:39;7.20;;;2.50;;
71572;SDS011;59408;51.032;9.410;2023-12-22T14:20:07;8.93;;;2.05;;
71572;SDS011;59408;51.032;9.410;2023-12-22T14:22:34;7.70;;;2.50;;
71572;SDS011;59408;51.032;9.410;2023-12-22T14:25:01;6.47;;;2.07;;
71572;SDS011;59408;51.032;9.410;2023-12-22T14:27:27;7.55;;;2.00;;
71572;SDS011;59408;51.032;9.410;2023-12-22T14:29:54;7.47;;;2.47;;
71572;SDS011;59408;51.032;9.410;2023-12-22T14:32:22;6.45;;;2.15;;
71572;SDS011;59408;51.032;9.410;2023-12-22T14:34:48;4.70;;;1.70;;
71572;SDS011;59408;51.032;9.410;2023-12-22T14:37:15;6.43;;;1.97;;
71572;SDS011;59408;51.032;9.410;2023-12-22T14:39:44;6.93;;;2.80;;
71572;SDS011;59408;51.032;9.410;2023-12-22T14:42:10;9.02;;;2.72;;
71572;SDS011;59408;51.032;9.410;2023-12-22T14:44:38;6.82;;;2.25;;
71572;SDS011;59408;51.032;9.410;2023-12-22T14:47:04;7.40;;;2.17;;
71572;SDS011;59408;51.032;9.410;2023-12-22T14:49:33;6.67;;;2.03;;